createdAt,value
2019-04-04T00:00:34.741Z,5.27
2019-04-04T00:03:02.238Z,7.23
2019-04-04T00:05:29.763Z,6.10
2019-04-04T00:07:58.129Z,7.30
2019-04-04T00:10:26.463Z,5.93
2019-04-04T00:12:53.946Z,7.83
2019-04-04T00:15:21.648Z,7.53
2019-04-04T00:17:49.098Z,6.53
2019-04-04T00:20:16.519Z,7.40
2019-04-04T00:22:43.979Z,6.63
2019-04-04T00:25:11.512Z,9.33
2019-04-04T00:27:39.000Z,7.33
2019-04-04T00:30:07.112Z,7.63
2019-04-04T00:32:34.568Z,8.17
2019-04-04T00:35:02.036Z,8.70
2019-04-04T00:37:29.528Z,8.47
2019-04-04T00:39:57.031Z,11.57
2019-04-04T00:42:24.498Z,10.00
2019-04-04T00:44:51.992Z,10.87
2019-04-04T00:47:19.445Z,10.00
2019-04-04T00:49:46.903Z,11.70
2019-04-04T00:52:14.355Z,9.13
2019-04-04T00:54:44.638Z,10.10
2019-04-04T00:57:11.128Z,11.30
2019-04-04T00:59:38.588Z,11.87
2019-04-04T01:02:06.066Z,12.40
2019-04-04T01:04:33.509Z,13.30
2019-04-04T01:07:00.981Z,11.33
2019-04-04T01:09:28.467Z,14.17
2019-04-04T01:11:55.897Z,15.63
2019-04-04T01:14:23.661Z,15.60
2019-04-04T01:16:51.084Z,15.13
2019-04-04T01:19:18.644Z,12.23
2019-04-04T01:21:46.111Z,12.77
2019-04-04T01:24:13.883Z,11.93
2019-04-04T01:26:41.349Z,13.20
2019-04-04T01:29:11.034Z,13.80
2019-04-04T01:31:38.132Z,12.33
2019-04-04T01:34:25.023Z,14.60
2019-04-04T01:36:55.975Z,14.00
2019-04-04T01:39:22.091Z,14.37
2019-04-04T01:41:49.550Z,17.60
2019-04-04T01:44:17.002Z,12.20
2019-04-04T01:46:45.984Z,15.20
2019-04-04T01:49:14.913Z,11.20
2019-04-04T01:51:42.392Z,14.30
2019-04-04T01:54:09.843Z,13.13
2019-04-04T01:56:37.721Z,13.20
2019-04-04T01:59:05.233Z,12.37
2019-04-04T02:01:32.686Z,12.83
2019-04-04T02:04:00.117Z,14.30
2019-04-04T02:06:28.698Z,12.93
2019-04-04T02:08:56.493Z,13.37
2019-04-04T02:11:23.954Z,15.73
2019-04-04T02:13:51.403Z,13.63
2019-04-04T02:16:18.861Z,12.87
2019-04-04T02:18:46.324Z,14.00
2019-04-04T02:21:13.770Z,14.17
2019-04-04T02:23:41.305Z,13.53
2019-04-04T02:26:08.714Z,13.00
2019-04-04T02:28:36.180Z,14.53
2019-04-04T02:31:05.471Z,11.57
2019-04-04T02:33:33.294Z,13.77
2019-04-04T02:36:00.843Z,13.60
2019-04-04T02:38:28.351Z,12.60
2019-04-04T02:40:55.770Z,15.07
2019-04-04T02:43:27.346Z,14.00
2019-04-04T02:45:52.495Z,14.07
2019-04-04T02:48:23.189Z,14.43
2019-04-04T02:50:49.264Z,14.30
2019-04-04T02:53:19.734Z,16.50
2019-04-04T02:55:45.971Z,16.80
2019-04-04T02:58:16.221Z,16.63
2019-04-04T03:00:43.707Z,17.93
2019-04-04T03:03:11.147Z,14.43
2019-04-04T03:05:38.603Z,13.13
2019-04-04T03:08:06.107Z,12.90
2019-04-04T03:10:33.503Z,14.97
2019-04-04T03:13:01.005Z,14.00
2019-04-04T03:15:28.524Z,14.67
2019-04-04T03:17:55.950Z,13.90
2019-04-04T03:20:23.378Z,14.37
2019-04-04T03:22:50.841Z,12.87
2019-04-04T03:25:18.294Z,15.63
2019-04-04T03:27:45.828Z,16.00
2019-04-04T03:30:16.078Z,12.97
2019-04-04T03:32:42.568Z,15.20
2019-04-04T03:35:10.061Z,14.73
2019-04-04T03:37:40.359Z,17.43
2019-04-04T03:40:06.987Z,14.07
2019-04-04T03:42:34.403Z,14.00
2019-04-04T03:45:01.959Z,15.97
2019-04-04T03:47:29.372Z,14.97
2019-04-04T03:49:57.925Z,13.63
2019-04-04T03:52:25.631Z,16.13
2019-04-04T03:54:56.236Z,16.57
2019-04-04T03:57:22.339Z,15.73
2019-04-04T03:59:49.829Z,15.47
2019-04-04T04:02:18.582Z,16.67
2019-04-04T04:04:46.830Z,19.17
2019-04-04T04:07:15.325Z,18.43
2019-04-04T04:09:43.063Z,17.03
2019-04-04T04:12:11.432Z,17.70
2019-04-04T04:14:39.268Z,15.50
2019-04-04T04:17:09.141Z,16.77
2019-04-04T04:19:36.011Z,19.03
2019-04-04T04:22:03.485Z,15.83
2019-04-04T04:24:30.968Z,18.37
2019-04-04T04:27:19.066Z,18.73
2019-04-04T04:29:46.516Z,18.93
2019-04-04T04:32:14.033Z,19.97
2019-04-04T04:34:41.557Z,18.60
2019-04-04T04:37:08.995Z,22.03
2019-04-04T04:39:40.984Z,19.80
2019-04-04T04:42:06.191Z,19.47
2019-04-04T04:44:37.666Z,21.80
2019-04-04T04:47:02.891Z,22.20
2019-04-04T04:49:30.401Z,23.17
2019-04-04T04:51:57.866Z,19.10
2019-04-04T04:54:25.345Z,23.00
2019-04-04T04:56:52.829Z,19.87
2019-04-04T04:59:20.578Z,22.13
2019-04-04T05:01:50.228Z,22.30
2019-04-04T05:04:17.376Z,24.43
2019-04-04T05:06:44.798Z,20.20
2019-04-04T05:09:13.979Z,19.37
2019-04-04T05:11:41.563Z,20.93
2019-04-04T05:14:08.994Z,20.10
2019-04-04T05:16:37.950Z,20.07
2019-04-04T05:19:05.774Z,21.80
2019-04-04T05:21:34.614Z,22.33
2019-04-04T05:24:02.170Z,20.07
2019-04-04T05:26:29.948Z,21.33
2019-04-04T05:28:57.439Z,20.53
2019-04-04T05:31:24.838Z,20.97
2019-04-04T05:33:52.310Z,23.47
2019-04-04T05:36:19.770Z,22.57
2019-04-04T05:38:47.402Z,20.97
2019-04-04T05:41:16.593Z,22.43
2019-04-04T05:43:44.261Z,22.13
2019-04-04T05:46:11.997Z,25.20
2019-04-04T05:48:40.391Z,21.97
2019-04-04T05:51:07.830Z,20.70
2019-04-04T05:53:35.993Z,18.47
2019-04-04T05:56:06.196Z,22.00
2019-04-04T05:58:32.766Z,21.67
2019-04-04T06:01:01.971Z,21.77
2019-04-04T06:03:29.807Z,19.67
2019-04-04T06:06:01.045Z,20.23
2019-04-04T06:08:26.882Z,23.80
2019-04-04T06:10:54.338Z,18.73
2019-04-04T06:13:22.320Z,18.93
2019-04-04T06:15:49.884Z,20.23
2019-04-04T06:18:17.330Z,17.60
2019-04-04T06:20:44.774Z,20.27
2019-04-04T06:23:12.230Z,21.13
2019-04-04T06:25:39.703Z,20.63
2019-04-04T06:28:07.517Z,20.67
2019-04-04T06:30:53.445Z,18.87
2019-04-04T06:33:20.213Z,18.67
2019-04-04T06:35:48.030Z,21.20
2019-04-04T06:38:15.474Z,19.67
2019-04-04T06:40:42.897Z,21.27
2019-04-04T06:43:11.784Z,20.30
2019-04-04T06:45:39.528Z,19.63
2019-04-04T06:48:07.367Z,20.03
2019-04-04T06:50:34.806Z,19.83
2019-04-04T06:53:02.322Z,18.90
2019-04-04T06:55:29.757Z,21.73
2019-04-04T06:57:57.246Z,18.30
2019-04-04T07:00:24.769Z,20.67
2019-04-04T07:02:55.225Z,22.00
2019-04-04T07:05:21.453Z,18.03
2019-04-04T07:07:48.966Z,21.47
2019-04-04T07:10:16.388Z,20.70
2019-04-04T07:12:43.924Z,25.70
2019-04-04T07:15:15.531Z,25.53
2019-04-04T07:17:41.152Z,21.47
2019-04-04T07:20:09.503Z,22.90
2019-04-04T07:22:37.157Z,17.70
2019-04-04T07:25:06.542Z,22.83
2019-04-04T07:27:34.626Z,24.47
2019-04-04T07:30:02.125Z,27.20
2019-04-04T07:32:29.578Z,25.47
2019-04-04T07:34:57.947Z,28.23
2019-04-04T07:37:25.387Z,26.90
2019-04-04T07:39:52.801Z,37.03
2019-04-04T07:42:20.255Z,22.87
2019-04-04T07:44:47.706Z,23.17
2019-04-04T07:47:16.140Z,24.67
2019-04-04T07:49:44.245Z,25.70
2019-04-04T07:52:11.648Z,27.10
2019-04-04T07:54:39.491Z,30.37
2019-04-04T07:57:06.968Z,26.77
2019-04-04T07:59:34.481Z,25.70
2019-04-04T08:02:01.999Z,33.63
2019-04-04T08:04:29.503Z,30.23
2019-04-04T08:06:57.376Z,29.80
2019-04-04T08:09:26.198Z,24.77
2019-04-04T08:11:53.895Z,24.53
2019-04-04T08:14:21.393Z,27.13
2019-04-04T08:16:48.910Z,25.73
2019-04-04T08:19:16.488Z,33.13
2019-04-04T08:21:44.250Z,32.03
2019-04-04T08:24:11.760Z,36.23
2019-04-04T08:26:39.233Z,36.00
2019-04-04T08:29:07.536Z,34.03
2019-04-04T08:31:35.046Z,37.23
2019-04-04T08:34:02.529Z,31.40
2019-04-04T08:36:30.024Z,33.10
2019-04-04T08:38:57.483Z,38.60
2019-04-04T08:41:24.943Z,39.27
2019-04-04T08:43:52.438Z,36.80
2019-04-04T08:46:20.210Z,31.30
2019-04-04T08:48:47.727Z,35.63
2019-04-04T08:51:15.292Z,30.40
2019-04-04T08:53:42.754Z,26.40
2019-04-04T08:56:10.218Z,22.70
2019-04-04T08:58:38.502Z,17.50
2019-04-04T09:01:05.944Z,21.80
2019-04-04T09:03:33.391Z,18.77
2019-04-04T09:06:00.874Z,19.80
2019-04-04T09:08:28.333Z,16.77
2019-04-04T09:10:55.815Z,16.30
2019-04-04T09:13:23.264Z,14.80
2019-04-04T09:15:50.775Z,13.90
2019-04-04T09:18:18.276Z,15.60
2019-04-04T09:20:45.717Z,18.23
2019-04-04T09:23:14.786Z,15.60
2019-04-04T09:26:05.740Z,18.80
2019-04-04T09:28:30.969Z,14.23
2019-04-04T09:30:58.452Z,14.20
2019-04-04T09:33:25.940Z,15.70
2019-04-04T09:35:53.795Z,14.93
2019-04-04T09:38:21.274Z,14.57
2019-04-04T09:40:48.841Z,15.20
2019-04-04T09:43:16.346Z,15.47
2019-04-04T09:45:43.823Z,11.83
2019-04-04T09:48:11.719Z,14.83
2019-04-04T09:50:39.185Z,16.57
2019-04-04T09:53:06.657Z,14.83
2019-04-04T09:55:34.185Z,15.27
2019-04-04T09:58:01.648Z,13.33
2019-04-04T10:00:29.128Z,16.53
2019-04-04T10:02:56.628Z,12.20
2019-04-04T10:05:24.123Z,14.58
2019-04-04T10:07:51.575Z,14.17
2019-04-04T10:10:21.777Z,13.55
2019-04-04T10:12:49.273Z,17.65
2019-04-04T10:15:16.830Z,15.40
2019-04-04T10:17:44.440Z,20.97
2019-04-04T10:20:12.872Z,16.57
2019-04-04T10:22:40.313Z,18.50
2019-04-04T10:25:07.852Z,18.55
2019-04-04T10:27:35.369Z,18.05
2019-04-04T10:30:04.213Z,17.32
2019-04-04T10:32:31.697Z,14.13
2019-04-04T10:34:59.154Z,14.70
2019-04-04T10:37:26.947Z,19.05
2019-04-04T10:39:54.700Z,19.42
2019-04-04T10:42:22.177Z,19.80
2019-04-04T10:44:49.803Z,18.87
2019-04-04T10:47:17.291Z,18.35
2019-04-04T10:49:45.007Z,18.55
2019-04-04T10:52:12.511Z,17.30
2019-04-04T10:54:39.979Z,18.82
2019-04-04T10:57:07.481Z,19.23
2019-04-04T10:59:34.946Z,19.35
2019-04-04T11:02:02.424Z,19.85
2019-04-04T11:04:29.965Z,20.32
2019-04-04T11:06:57.759Z,19.87
2019-04-04T11:09:25.322Z,18.95
2019-04-04T11:11:52.774Z,19.12
2019-04-04T11:14:20.256Z,18.67
2019-04-04T11:16:47.730Z,19.62
2019-04-04T11:19:15.256Z,18.07
2019-04-04T11:21:42.723Z,19.25
2019-04-04T11:24:10.190Z,16.52
2019-04-04T11:26:37.712Z,18.45
2019-04-04T11:29:05.212Z,18.52
2019-04-04T11:31:32.684Z,17.12
2019-04-04T11:34:00.184Z,19.00
2019-04-04T11:36:27.763Z,19.02
2019-04-04T11:38:55.256Z,19.05
2019-04-04T11:41:22.783Z,22.65
2019-04-04T11:43:50.252Z,18.45
2019-04-04T11:46:18.345Z,17.60
2019-04-04T11:48:45.820Z,15.98
2019-04-04T11:51:13.333Z,15.90
2019-04-04T11:53:40.813Z,17.35
2019-04-04T11:56:08.267Z,14.73
2019-04-04T11:58:35.738Z,14.83
2019-04-04T12:01:06.135Z,17.42
2019-04-04T12:03:33.623Z,17.35
2019-04-04T12:06:01.079Z,17.70
2019-04-04T12:08:28.543Z,18.05
2019-04-04T12:10:56.012Z,20.32
2019-04-04T12:13:23.458Z,18.80
2019-04-04T12:15:50.926Z,15.72
2019-04-04T12:18:18.416Z,18.00
2019-04-04T12:20:45.914Z,17.60
2019-04-04T12:23:13.416Z,21.55
2019-04-04T12:25:40.868Z,20.50
2019-04-04T12:28:08.494Z,19.37
2019-04-04T12:30:35.950Z,19.57
2019-04-04T12:33:03.421Z,19.75
2019-04-04T12:35:30.938Z,20.20
2019-04-04T12:37:58.401Z,22.65
2019-04-04T12:40:26.166Z,17.62
2019-04-04T12:42:53.636Z,18.10
2019-04-04T12:45:21.706Z,15.98
2019-04-04T12:47:49.300Z,16.60
2019-04-04T12:50:17.190Z,14.95
2019-04-04T12:52:44.664Z,16.90
2019-04-04T12:55:12.464Z,17.37
2019-04-04T12:57:41.046Z,13.95
2019-04-04T13:00:08.888Z,17.07
2019-04-04T13:02:36.369Z,14.43
2019-04-04T13:05:04.942Z,13.38
2019-04-04T13:07:32.408Z,15.08
2019-04-04T13:10:10.919Z,14.53
2019-04-04T13:12:29.213Z,13.60
2019-04-04T13:14:56.706Z,12.82
2019-04-04T13:17:24.686Z,9.90
2019-04-04T13:19:52.178Z,15.23
2019-04-04T13:22:19.678Z,13.95
2019-04-04T13:24:47.179Z,13.72
2019-04-04T13:27:17.554Z,11.75
2019-04-04T13:29:43.918Z,13.35
2019-04-04T13:32:12.092Z,19.75
2019-04-04T13:34:39.538Z,15.85
2019-04-04T13:37:06.943Z,17.45
2019-04-04T13:39:34.442Z,17.35
2019-04-04T13:42:01.942Z,19.92
2019-04-04T13:44:30.241Z,15.15
2019-04-04T13:46:57.965Z,16.20
2019-04-04T13:49:25.464Z,18.12
2019-04-04T13:51:53.639Z,18.20
2019-04-04T13:54:21.303Z,13.03
2019-04-04T13:56:49.134Z,17.80
2019-04-04T13:59:16.628Z,18.62
2019-04-04T14:01:44.745Z,20.70
2019-04-04T14:04:12.691Z,19.50
2019-04-04T14:06:40.170Z,15.75
2019-04-04T14:09:08.182Z,21.80
2019-04-04T14:11:35.781Z,19.50
2019-04-04T14:14:03.440Z,15.48
2019-04-04T14:16:30.942Z,12.73
2019-04-04T14:18:58.937Z,13.60
2019-04-04T14:21:26.442Z,13.25
2019-04-04T14:23:56.767Z,10.23
2019-04-04T14:29:55.175Z,8.37
2019-04-04T14:32:22.164Z,9.90
2019-04-04T14:34:49.631Z,8.10
2019-04-04T14:37:17.042Z,6.57
2019-04-04T14:39:44.735Z,6.53
2019-04-04T14:42:12.291Z,5.17
2019-04-04T14:44:40.946Z,6.37
2019-04-04T14:47:08.752Z,4.10
2019-04-04T14:49:36.290Z,5.87
2019-04-04T14:52:03.745Z,7.23
2019-04-04T14:54:31.347Z,6.57
2019-04-04T14:56:58.855Z,5.63
2019-04-04T14:59:26.414Z,4.80
2019-04-04T15:01:53.874Z,5.67
2019-04-04T15:04:21.408Z,4.23
2019-04-04T15:06:48.909Z,5.07
2019-04-04T15:09:16.387Z,5.30
2019-04-04T15:11:43.871Z,4.90
2019-04-04T15:14:11.406Z,8.67
2019-04-04T15:16:38.840Z,4.40
2019-04-04T15:19:06.297Z,4.70
2019-04-04T15:21:34.127Z,6.83
2019-04-04T15:24:01.929Z,4.93
2019-04-04T15:26:29.544Z,4.43
2019-04-04T15:28:59.196Z,5.33
2019-04-04T15:31:27.888Z,7.70
2019-04-04T15:33:55.354Z,6.10
2019-04-04T15:36:23.106Z,6.13
2019-04-04T15:38:50.558Z,5.73
2019-04-04T15:41:18.009Z,5.93
2019-04-04T15:43:45.470Z,6.07
2019-04-04T15:46:12.943Z,4.13
2019-04-04T15:48:40.420Z,3.63
2019-04-04T15:51:07.873Z,4.27
2019-04-04T15:53:35.337Z,4.33
2019-04-04T15:56:05.586Z,4.50
2019-04-04T15:58:44.514Z,4.50
2019-04-04T16:01:12.009Z,3.47
2019-04-04T16:03:39.455Z,5.30
2019-04-04T16:06:06.917Z,4.40
2019-04-04T16:08:34.714Z,4.10
2019-04-04T16:11:02.455Z,3.93
2019-04-04T16:13:30.211Z,4.80
2019-04-04T16:15:57.844Z,4.83
2019-04-04T16:18:25.621Z,4.10
2019-04-04T16:20:53.205Z,4.23
2019-04-04T16:23:20.662Z,6.20
2019-04-04T16:25:48.137Z,5.40
2019-04-04T16:28:15.589Z,4.70
2019-04-04T16:30:43.022Z,5.93
2019-04-04T16:33:10.499Z,4.17
2019-04-04T16:35:38.233Z,5.77
2019-04-04T16:38:06.065Z,6.77
2019-04-04T16:40:33.618Z,7.37
2019-04-04T16:43:01.074Z,6.13
2019-04-04T16:45:28.601Z,7.27
2019-04-04T16:47:56.488Z,9.50
2019-04-04T16:50:24.234Z,11.33
2019-04-04T16:52:51.711Z,5.40
2019-04-04T16:55:19.188Z,5.50
2019-04-04T16:57:47.027Z,4.23
2019-04-04T17:00:15.639Z,3.73
2019-04-04T17:02:43.142Z,5.83
2019-04-04T17:05:11.658Z,5.63
2019-04-04T17:07:39.150Z,4.40
2019-04-04T17:10:08.445Z,6.83
2019-04-04T17:12:36.270Z,6.27
2019-04-04T17:15:05.232Z,4.90
2019-04-04T17:17:32.701Z,6.87
2019-04-04T17:20:00.215Z,4.40
2019-04-04T17:22:29.401Z,4.90
2019-04-04T17:24:57.020Z,5.50
2019-04-04T17:27:24.489Z,6.53
2019-04-04T17:29:52.339Z,5.00
2019-04-04T17:32:20.136Z,4.67
2019-04-04T17:34:48.218Z,4.70
2019-04-04T17:37:16.571Z,5.67
2019-04-04T17:39:44.411Z,6.93
2019-04-04T17:42:11.855Z,5.27
2019-04-04T17:44:39.849Z,6.07
2019-04-04T17:47:08.936Z,9.03
2019-04-04T17:49:36.540Z,7.37
2019-04-04T17:52:04.547Z,6.03
2019-04-04T17:54:32.466Z,8.93
2019-04-04T17:57:00.378Z,8.07
2019-04-04T17:59:30.211Z,10.17
2019-04-04T18:01:57.269Z,10.63
2019-04-04T18:04:24.852Z,16.33
2019-04-04T18:06:52.390Z,17.33
2019-04-04T18:09:31.111Z,15.67
2019-04-04T18:11:49.113Z,12.83
2019-04-04T18:14:16.584Z,13.10
2019-04-04T18:16:44.326Z,15.80
2019-04-04T18:19:12.192Z,15.17
2019-04-04T18:21:39.647Z,14.77
2019-04-04T18:24:07.716Z,17.67
2019-04-04T18:26:35.129Z,14.30
2019-04-04T18:29:02.616Z,15.80
2019-04-04T18:31:30.121Z,18.23
2019-04-04T18:33:58.745Z,17.67
2019-04-04T18:36:26.790Z,20.60
2019-04-04T18:38:54.226Z,20.97
2019-04-04T18:41:21.685Z,21.63
2019-04-04T18:43:49.476Z,23.10
2019-04-04T18:46:17.034Z,23.73
2019-04-04T18:48:44.557Z,21.20
2019-04-04T18:51:12.052Z,23.00
2019-04-04T18:53:39.758Z,22.07
2019-04-04T18:56:07.235Z,29.43
2019-04-04T18:58:34.722Z,27.13
2019-04-04T19:01:02.306Z,22.07
2019-04-04T19:03:30.089Z,29.23
2019-04-04T19:05:57.563Z,27.60
2019-04-04T19:08:25.431Z,28.27
2019-04-04T19:10:53.225Z,27.80
2019-04-04T19:13:20.753Z,26.23
2019-04-04T19:15:48.655Z,26.47
2019-04-04T19:18:16.998Z,28.93
2019-04-04T19:20:44.454Z,27.20
2019-04-04T19:23:11.922Z,28.13
2019-04-04T19:25:39.489Z,32.23
2019-04-04T19:28:07.256Z,35.97
2019-04-04T19:30:34.706Z,32.20
2019-04-04T19:33:02.206Z,31.53
2019-04-04T19:35:30.000Z,30.23
2019-04-04T19:38:00.318Z,32.37
2019-04-04T19:40:26.683Z,30.40
2019-04-04T19:42:54.440Z,33.17
2019-04-04T19:45:21.883Z,33.73
2019-04-04T19:47:49.327Z,34.00
2019-04-04T19:50:16.789Z,36.00
2019-04-04T19:52:45.384Z,40.70
2019-04-04T19:55:12.977Z,36.57
2019-04-04T19:57:40.409Z,35.40
2019-04-04T20:00:08.904Z,35.83
2019-04-04T20:02:36.354Z,31.47
2019-04-04T20:05:04.380Z,31.70
2019-04-04T20:07:31.884Z,43.37
2019-04-04T20:10:00.430Z,33.53
2019-04-04T20:12:27.928Z,34.73
2019-04-04T20:14:55.395Z,36.00
2019-04-04T20:17:22.920Z,32.40
2019-04-04T20:19:50.435Z,33.23
2019-04-04T20:22:18.193Z,35.73
2019-04-04T20:24:45.912Z,35.67
2019-04-04T20:27:13.395Z,34.80
2019-04-04T20:29:40.907Z,36.90
2019-04-04T20:32:08.403Z,37.17
2019-04-04T20:34:36.196Z,25.53
2019-04-04T20:37:03.987Z,34.30
2019-04-04T20:39:31.447Z,33.47
2019-04-04T20:41:58.934Z,32.77
2019-04-04T20:44:26.407Z,33.60
2019-04-04T20:46:54.096Z,33.17
2019-04-04T20:49:21.599Z,35.37
2019-04-04T20:51:49.356Z,29.77
2019-04-04T20:54:16.814Z,35.27
2019-04-04T20:56:44.643Z,33.80
2019-04-04T20:59:12.093Z,31.17
2019-04-04T21:01:39.594Z,34.90
2019-04-04T21:04:07.117Z,32.83
2019-04-04T21:06:34.911Z,33.00
2019-04-04T21:09:04.070Z,37.53
2019-04-04T21:11:31.566Z,35.03
2019-04-04T21:13:59.046Z,38.47
2019-04-04T21:16:26.530Z,32.80
2019-04-04T21:18:53.961Z,25.07
2019-04-04T21:21:21.385Z,31.17
2019-04-04T21:23:48.974Z,35.57
2019-04-04T21:26:16.447Z,38.67
2019-04-04T21:28:43.919Z,40.40
2019-04-04T21:31:11.573Z,35.33
2019-04-04T21:33:39.393Z,34.53
2019-04-04T21:36:07.666Z,29.97
2019-04-04T21:38:35.106Z,33.67
2019-04-04T21:41:02.583Z,36.37
2019-04-04T21:43:30.438Z,36.90
2019-04-04T21:45:57.871Z,35.50
2019-04-04T21:48:25.330Z,34.33
2019-04-04T21:50:52.767Z,36.97
2019-04-04T21:53:20.194Z,36.00
2019-04-04T21:55:47.691Z,36.10
2019-04-04T21:58:15.144Z,34.20
2019-04-04T22:00:43.694Z,36.60
2019-04-04T22:03:11.167Z,35.90
2019-04-04T22:05:38.793Z,36.33
2019-04-04T22:08:06.282Z,33.90
2019-04-04T22:10:34.362Z,32.00
2019-04-04T22:13:01.783Z,33.97
2019-04-04T22:15:29.565Z,32.47
2019-04-04T22:17:57.026Z,36.50
2019-04-04T22:20:24.468Z,36.37
2019-04-04T22:22:51.934Z,31.93
2019-04-04T22:25:19.424Z,33.67
2019-04-04T22:27:46.906Z,36.93
2019-04-04T22:30:14.571Z,36.23
2019-04-04T22:32:42.058Z,35.17
2019-04-04T22:35:09.584Z,36.10
2019-04-04T22:37:37.030Z,38.63
2019-04-04T22:40:04.957Z,36.13
2019-04-04T22:42:32.429Z,39.90
2019-04-04T22:44:59.922Z,38.27
2019-04-04T22:47:27.343Z,38.63
2019-04-04T22:49:54.794Z,34.27
2019-04-04T22:52:22.847Z,38.23
2019-04-04T22:54:50.343Z,37.13
2019-04-04T22:57:18.069Z,33.93
2019-04-04T22:59:45.528Z,32.90
2019-04-04T23:02:12.950Z,34.30
2019-04-04T23:04:40.425Z,35.70
2019-04-04T23:07:07.858Z,30.47
2019-04-04T23:09:35.659Z,35.03
2019-04-04T23:12:03.110Z,35.27
2019-04-04T23:14:31.515Z,36.23
2019-04-04T23:16:58.987Z,34.27
2019-04-04T23:19:26.446Z,28.87
2019-04-04T23:21:54.229Z,33.40
2019-04-04T23:24:21.654Z,33.57
2019-04-04T23:26:49.078Z,33.50
2019-04-04T23:29:16.845Z,36.40
2019-04-04T23:31:44.333Z,29.77
2019-04-04T23:34:11.757Z,34.57
2019-04-04T23:36:39.455Z,33.23
2019-04-04T23:39:06.894Z,32.47
2019-04-04T23:41:34.354Z,31.73
2019-04-04T23:44:01.834Z,32.70
2019-04-04T23:46:29.275Z,33.77
2019-04-04T23:48:56.698Z,35.00
2019-04-04T23:51:24.127Z,30.10
2019-04-04T23:53:51.577Z,33.10
2019-04-04T23:56:19.001Z,32.07
2019-04-04T23:58:46.434Z,32.77
